Time;durP1;ratioP1;P1;durP2;ratioP2;P2;SDS_P1;SDS_P2;PMS_P1;PMS_P2;Temp;Humidity;BMP_temperature;BMP_pressure;BME280_temperature;BME280_humidity;BME280_pressure;Samples;Min_cycle;Max_cycle;Signal;HPM_P1;HPM_P2
2021/12/01 00:01:56;;;;;;;0.80;0.80;;;17.60;53.40;;;;;;5066712;28;20037;-50
2021/12/01 00:04:24;;;;;;;2.25;1.35;;;17.60;53.40;;;;;;5067562;28;20060;-47
2021/12/01 00:06:51;;;;;;;0.32;0.20;;;17.50;53.30;;;;;;5066033;28;20051;-46
2021/12/01 00:09:18;;;;;;;0.20;0.20;;;17.50;53.30;;;;;;5066088;28;20040;-46
2021/12/01 00:11:45;;;;;;;0.95;0.30;;;17.50;53.40;;;;;;5065579;28;20044;-51
2021/12/01 00:14:12;;;;;;;1.50;0.73;;;17.50;53.30;;;;;;5066150;28;20128;-47
2021/12/01 00:16:40;;;;;;;0.40;0.30;;;17.50;53.40;;;;;;5066483;28;20539;-53
2021/12/01 00:19:07;;;;;;;1.45;0.40;;;17.50;53.40;;;;;;5067370;28;20101;-47
2021/12/01 00:21:35;;;;;;;0.32;0.32;;;17.50;53.50;;;;;;5065420;28;20044;-46
2021/12/01 00:24:02;;;;;;;0.85;0.20;;;17.40;53.40;;;;;;5065622;28;20049;-53
2021/12/01 00:26:29;;;;;;;1.35;0.30;;;17.40;53.40;;;;;;5065365;28;20044;-51
2021/12/01 00:28:56;;;;;;;0.57;0.30;;;17.40;54.00;;;;;;5065493;28;20040;-49
2021/12/01 00:31:23;;;;;;;0.60;0.30;;;17.40;53.50;;;;;;5067186;28;20390;-45
2021/12/01 00:33:51;;;;;;;0.50;0.28;;;17.40;53.60;;;;;;5065550;28;20408;-47
2021/12/01 00:36:18;;;;;;;0.22;0.20;;;17.40;53.70;;;;;;5065786;28;20506;-51
2021/12/01 00:38:47;;;;;;;0.40;0.20;;;17.40;53.70;;;;;;5065780;28;20143;-50
2021/12/01 00:41:15;;;;;;;0.20;0.20;;;17.40;53.70;;;;;;5065072;28;20048;-52
2021/12/01 00:43:42;;;;;;;0.20;0.20;;;17.40;53.70;;;;;;5064364;28;20044;-48
2021/12/01 00:46:13;;;;;;;0.95;0.10;;;17.30;53.70;;;;;;5066879;28;20123;-50
2021/12/01 00:48:41;;;;;;;1.27;0.25;;;17.30;53.70;;;;;;5065801;28;20108;-51
2021/12/01 00:51:09;;;;;;;0.10;0.10;;;17.30;53.70;;;;;;5065272;28;20032;-52
2021/12/01 00:53:36;;;;;;;0.20;0.20;;;17.30;53.70;;;;;;5064828;28;20568;-53
2021/12/01 00:56:05;;;;;;;0.13;0.10;;;17.30;53.70;;;;;;5064793;28;20496;-48
2021/12/01 00:58:32;;;;;;;0.10;0.10;;;17.40;53.80;;;;;;5065681;28;20048;-49
2021/12/01 01:01:01;;;;;;;0.10;0.10;;;17.30;53.70;;;;;;5066003;28;20409;-52
2021/12/01 01:03:31;;;;;;;0.10;0.10;;;17.30;53.70;;;;;;5064973;28;20062;-50
2021/12/01 01:05:58;;;;;;;0.20;0.20;;;17.30;53.80;;;;;;5065028;28;20070;-48
2021/12/01 01:08:25;;;;;;;0.10;0.10;;;17.30;53.80;;;;;;5065160;28;20106;-52
2021/12/01 01:11:10;;;;;;;5.88;0.40;;;17.30;53.80;;;;;;5064912;28;20051;-48
2021/12/01 01:16:24;;;;;;;0.55;0.55;;;17.30;54.00;;;;;;5065621;28;20520;-50
2021/12/01 01:18:55;;;;;;;3.28;0.10;;;17.30;54.10;;;;;;5065372;28;20057;-50
2021/12/01 01:21:24;;;;;;;2.83;0.38;;;17.30;54.30;;;;;;5064951;28;20051;-49
2021/12/01 01:23:51;;;;;;;0.30;0.10;;;17.30;54.40;;;;;;5063362;28;20098;-46
2021/12/01 01:26:20;;;;;;;0.60;0.10;;;17.30;54.30;;;;;;5064633;28;20036;-50
2021/12/01 01:28:50;;;;;;;0.20;0.20;;;17.30;54.30;;;;;;5064955;28;20047;-52
2021/12/01 01:31:18;;;;;;;0.45;0.25;;;17.30;54.30;;;;;;5066444;28;20036;-51
2021/12/01 01:33:45;;;;;;;0.77;0.20;;;17.30;54.30;;;;;;5065073;28;20049;-51
2021/12/01 01:36:13;;;;;;;0.20;0.10;;;17.30;54.30;;;;;;5064857;28;20040;-55
2021/12/01 01:38:41;;;;;;;0.98;0.10;;;17.20;54.30;;;;;;5064751;28;20040;-52
2021/12/01 01:41:10;;;;;;;0.10;0.00;;;17.20;54.30;;;;;;5064257;28;20040;-49
2021/12/01 01:43:40;;;;;;;0.20;0.10;;;17.20;54.30;;;;;;5065184;28;20518;-49
2021/12/01 01:46:08;;;;;;;0.10;0.10;;;17.20;54.30;;;;;;5062956;28;20037;-49
2021/12/01 01:48:46;;;;;;;0.38;0.20;;;17.20;54.20;;;;;;5064948;28;20051;-48
2021/12/01 01:51:13;;;;;;;0.10;0.10;;;17.20;54.30;;;;;;5058714;28;20037;-50
2021/12/01 01:53:41;;;;;;;0.10;0.10;;;17.20;54.30;;;;;;5057955;28;20390;-49
2021/12/01 01:56:08;;;;;;;0.73;0.10;;;17.20;54.90;;;;;;5059894;28;20040;-51
2021/12/01 01:58:35;;;;;;;1.13;0.10;;;17.20;54.30;;;;;;5066043;28;20040;-52
2021/12/01 02:01:07;;;;;;;0.20;0.10;;;17.20;54.30;;;;;;5067500;28;20056;-51
2021/12/01 02:03:39;;;;;;;0.15;0.10;;;17.20;54.40;;;;;;5065399;28;20051;-50
2021/12/01 02:06:06;;;;;;;0.25;0.10;;;17.20;54.30;;;;;;5068280;28;20592;-47
2021/12/01 02:08:35;;;;;;;0.10;0.10;;;17.10;54.30;;;;;;5068037;28;20043;-49
2021/12/01 02:11:05;;;;;;;0.10;0.10;;;17.10;54.30;;;;;;5068291;28;20123;-52
2021/12/01 02:13:33;;;;;;;6.03;0.10;;;17.10;54.30;;;;;;5068896;28;20045;-50
2021/12/01 02:16:01;;;;;;;0.40;0.40;;;17.10;54.40;;;;;;5068902;28;20032;-53
2021/12/01 02:18:28;;;;;;;0.15;0.10;;;17.10;55.00;;;;;;5068361;28;20093;-51
2021/12/01 02:21:04;;;;;;;4.75;0.08;;;17.10;54.40;;;;;;5067837;28;20044;-47
2021/12/01 02:23:32;;;;;;;;;;;17.10;54.40;;;;;;5068031;28;20041;-54
2021/12/01 02:25:59;;;;;;;0.20;0.20;;;17.10;54.30;;;;;;5064554;28;20412;-52
2021/12/01 02:28:26;;;;;;;0.20;0.10;;;17.00;54.40;;;;;;5065936;28;20048;-50
2021/12/01 02:30:53;;;;;;;0.15;0.00;;;17.00;54.40;;;;;;5066477;28;20511;-51
2021/12/01 02:33:20;;;;;;;0.10;0.10;;;17.10;54.50;;;;;;5067801;28;20040;-50
2021/12/01 02:35:47;;;;;;;0.30;0.20;;;17.00;54.40;;;;;;5067912;28;20443;-53
2021/12/01 02:38:17;;;;;;;0.10;0.10;;;17.00;54.40;;;;;;5064177;28;20838;-48
2021/12/01 02:40:45;;;;;;;6.18;0.10;;;17.00;54.50;;;;;;5068243;28;20055;-51
2021/12/01 02:43:12;;;;;;;0.50;0.20;;;17.00;54.50;;;;;;5067402;28;20045;-50
2021/12/01 02:45:40;;;;;;;0.10;0.10;;;17.00;54.50;;;;;;5067580;28;20040;-49
2021/12/01 02:48:10;;;;;;;0.30;0.10;;;17.00;54.50;;;;;;5067516;28;20051;-54
2021/12/01 02:50:37;;;;;;;0.77;0.10;;;17.00;54.50;;;;;;5067544;28;20090;-52
2021/12/01 02:53:04;;;;;;;0.63;0.10;;;17.00;54.50;;;;;;5067002;28;20032;-51
2021/12/01 02:55:33;;;;;;;0.13;0.05;;;17.00;54.50;;;;;;5066748;28;20056;-47
2021/12/01 02:58:01;;;;;;;0.38;0.10;;;17.00;54.60;;;;;;5068177;28;20040;-49
2021/12/01 03:00:28;;;;;;;2.15;0.10;;;17.00;54.60;;;;;;5067584;28;20033;-49
2021/12/01 03:02:57;;;;;;;0.10;0.08;;;17.00;54.60;;;;;;5067531;28;20127;-47
2021/12/01 03:05:25;;;;;;;0.10;0.10;;;17.00;54.60;;;;;;5067228;28;20499;-48
2021/12/01 03:07:53;;;;;;;2.17;0.20;;;16.90;54.50;;;;;;5066181;28;20135;-48
2021/12/01 03:10:20;;;;;;;0.10;0.08;;;16.90;54.60;;;;;;5068669;28;20047;-49
2021/12/01 03:12:48;;;;;;;0.10;0.10;;;16.90;54.60;;;;;;5067165;28;20045;-49
2021/12/01 03:15:19;;;;;;;0.45;0.45;;;16.90;54.60;;;;;;5067640;28;20059;-46
2021/12/01 03:17:46;;;;;;;0.40;0.00;;;16.90;54.60;;;;;;5065957;28;20083;-48
2021/12/01 03:20:15;;;;;;;0.10;0.10;;;16.90;54.70;;;;;;5065898;28;20107;-50
2021/12/01 03:22:43;;;;;;;0.10;0.08;;;16.90;54.70;;;;;;5067063;28;20094;-51
2021/12/01 03:25:12;;;;;;;0.43;0.10;;;16.90;54.80;;;;;;5066220;28;20041;-48
2021/12/01 03:27:40;;;;;;;0.00;0.00;;;16.90;54.80;;;;;;5066678;28;20040;-47
2021/12/01 03:30:11;;;;;;;0.63;0.20;;;16.90;54.90;;;;;;5066921;28;20032;-51
2021/12/01 03:32:39;;;;;;;0.10;0.10;;;16.90;54.90;;;;;;5066468;28;20037;-49
2021/12/01 03:35:08;;;;;;;0.68;0.00;;;16.90;54.90;;;;;;5066437;28;20037;-49
2021/12/01 03:37:36;;;;;;;0.25;0.10;;;16.90;55.00;;;;;;5067260;28;20044;-46
2021/12/01 03:40:05;;;;;;;0.47;0.00;;;16.90;55.00;;;;;;5066918;28;20421;-46
2021/12/01 03:42:32;;;;;;;0.05;0.00;;;16.90;55.10;;;;;;5066360;28;20512;-52
2021/12/01 03:44:59;;;;;;;1.10;0.05;;;16.90;55.10;;;;;;5066159;28;20048;-50
2021/12/01 03:47:28;;;;;;;0.10;0.00;;;16.90;55.10;;;;;;5066293;28;20041;-46
2021/12/01 03:49:55;;;;;;;0.17;0.00;;;16.90;55.20;;;;;;5065016;28;20047;-47
2021/12/01 03:52:23;;;;;;;0.70;0.10;;;16.90;55.80;;;;;;5068003;28;20052;-47
2021/12/01 03:54:52;;;;;;;1.42;0.10;;;16.90;55.30;;;;;;5066505;28;20127;-50
2021/12/01 03:57:20;;;;;;;0.00;0.00;;;16.90;55.30;;;;;;5066078;28;20028;-50
2021/12/01 03:59:47;;;;;;;0.57;0.00;;;16.90;55.40;;;;;;5066553;28;20464;-52
2021/12/01 04:02:14;;;;;;;0.95;0.00;;;16.90;55.40;;;;;;5066473;28;20469;-50
2021/12/01 04:04:43;;;;;;;0.40;0.00;;;16.90;55.50;;;;;;5065938;28;20059;-50
2021/12/01 04:07:10;;;;;;;0.00;0.00;;;16.90;55.50;;;;;;5067492;28;20047;-52
2021/12/01 04:09:38;;;;;;;0.10;0.00;;;16.90;55.60;;;;;;5066306;28;20037;-53
2021/12/01 04:12:06;;;;;;;0.10;0.00;;;16.90;55.60;;;;;;5065935;28;20044;-50
2021/12/01 04:14:33;;;;;;;0.10;0.00;;;16.90;55.70;;;;;;5065532;28;20048;-53
2021/12/01 04:17:00;;;;;;;0.57;0.00;;;16.90;55.70;;;;;;5066008;28;20051;-48
2021/12/01 04:19:27;;;;;;;0.28;0.03;;;16.90;56.00;;;;;;5066138;28;20044;-49
2021/12/01 04:21:58;;;;;;;0.00;0.00;;;16.80;55.90;;;;;;5066353;28;20459;-49
2021/12/01 04:24:25;;;;;;;2.35;0.10;;;16.90;56.00;;;;;;5065601;28;20056;-51
2021/12/01 04:26:52;;;;;;;0.08;0.00;;;16.90;56.10;;;;;;5065612;28;20071;-51
2021/12/01 04:29:19;;;;;;;0.10;0.10;;;16.80;56.00;;;;;;5065589;28;20044;-52
2021/12/01 04:31:47;;;;;;;0.00;0.00;;;16.80;56.10;;;;;;5065292;28;20563;-48
2021/12/01 04:34:14;;;;;;;0.00;0.00;;;16.80;56.10;;;;;;5066839;28;20041;-51
2021/12/01 04:36:42;;;;;;;0.17;0.00;;;16.80;56.20;;;;;;5065515;28;20032;-48
2021/12/01 04:39:13;;;;;;;0.00;0.00;;;16.80;56.20;;;;;;5065885;28;20044;-54
2021/12/01 04:41:49;;;;;;;2.03;0.00;;;16.80;56.20;;;;;;5065155;28;20045;-49
2021/12/01 04:44:17;;;;;;;0.00;0.00;;;16.80;56.30;;;;;;5065413;28;20032;-49
2021/12/01 04:46:45;;;;;;;1.88;0.10;;;16.80;56.20;;;;;;5047633;28;20045;-52
2021/12/01 04:49:17;;;;;;;0.00;0.00;;;16.80;56.30;;;;;;5063165;28;20049;-52
2021/12/01 04:51:45;;;;;;;0.00;0.00;;;16.70;56.30;;;;;;5063495;28;20040;-51
2021/12/01 04:54:14;;;;;;;0.00;0.00;;;16.70;56.40;;;;;;5065226;28;20505;-50
2021/12/01 04:56:43;;;;;;;0.00;0.00;;;16.70;57.00;;;;;;5065079;28;20684;-50
2021/12/01 04:59:10;;;;;;;0.20;0.00;;;16.70;56.50;;;;;;5064552;28;20039;-50
2021/12/01 05:01:39;;;;;;;0.00;0.00;;;16.70;56.50;;;;;;5061707;28;20450;-53
2021/12/01 05:04:06;;;;;;;1.55;0.10;;;16.70;56.60;;;;;;5065048;28;20037;-51
2021/12/01 05:06:33;;;;;;;0.00;0.00;;;16.70;56.60;;;;;;5064342;28;20502;-51
2021/12/01 05:09:00;;;;;;;0.10;0.00;;;16.70;57.20;;;;;;5064594;28;20033;-49
2021/12/01 05:11:29;;;;;;;0.00;0.00;;;16.70;56.70;;;;;;5064826;28;20043;-49
2021/12/01 05:13:56;;;;;;;0.00;0.00;;;16.70;56.70;;;;;;5064734;28;20421;-48
2021/12/01 05:16:23;;;;;;;0.00;0.00;;;16.70;56.70;;;;;;5065915;28;20051;-52
2021/12/01 05:18:51;;;;;;;0.00;0.00;;;16.70;56.80;;;;;;5063837;28;20059;-45
2021/12/01 05:21:18;;;;;;;0.10;0.00;;;16.70;56.80;;;;;;5064224;28;20048;-46
2021/12/01 05:23:45;;;;;;;0.00;0.00;;;16.70;56.80;;;;;;5064513;28;20093;-50
2021/12/01 05:26:12;;;;;;;0.00;0.00;;;16.70;56.80;;;;;;5064346;28;20045;-50
2021/12/01 05:28:42;;;;;;;0.22;0.00;;;16.60;56.80;;;;;;5064144;28;20409;-47
2021/12/01 05:31:09;;;;;;;0.40;0.00;;;16.70;56.90;;;;;;5064580;28;20044;-48
2021/12/01 05:33:39;;;;;;;0.10;0.10;;;16.60;56.80;;;;;;5064185;28;20045;-51
2021/12/01 05:36:06;;;;;;;0.00;0.00;;;16.70;56.90;;;;;;5063961;28;20041;-50
2021/12/01 05:38:33;;;;;;;0.00;0.00;;;16.70;56.90;;;;;;5064928;28;20033;-48
2021/12/01 05:41:02;;;;;;;0.00;0.00;;;16.60;56.90;;;;;;5062655;28;20526;-50
2021/12/01 05:43:30;;;;;;;0.00;0.00;;;16.60;56.90;;;;;;5062552;28;20033;-50
2021/12/01 05:45:58;;;;;;;0.00;0.00;;;16.60;56.90;;;;;;5064632;28;20427;-49
2021/12/01 05:48:26;;;;;;;0.90;0.00;;;16.60;56.90;;;;;;5064046;28;20037;-52
2021/12/01 05:50:53;;;;;;;0.00;0.00;;;16.60;56.90;;;;;;5064428;28;20513;-54
2021/12/01 05:53:20;;;;;;;1.75;0.00;;;16.60;56.90;;;;;;5064699;28;20032;-49
2021/12/01 05:55:47;;;;;;;1.08;0.00;;;16.60;56.90;;;;;;5064573;28;20048;-49
2021/12/01 05:58:14;;;;;;;0.00;0.00;;;16.60;56.90;;;;;;5065628;28;20045;-50
2021/12/01 06:00:41;;;;;;;0.00;0.00;;;16.60;57.00;;;;;;5062955;28;20041;-48
2021/12/01 06:03:10;;;;;;;0.10;0.00;;;16.60;57.00;;;;;;5064627;28;20036;-51
2021/12/01 06:05:37;;;;;;;0.00;0.00;;;16.60;57.00;;;;;;5064091;28;20124;-49
2021/12/01 06:08:05;;;;;;;0.00;0.00;;;16.60;57.00;;;;;;5064155;28;20043;-48
2021/12/01 06:10:33;;;;;;;0.25;0.00;;;16.60;57.10;;;;;;5064869;28;20063;-51
2021/12/01 06:13:00;;;;;;;0.00;0.00;;;16.60;57.00;;;;;;5064623;28;20044;-46
2021/12/01 06:15:29;;;;;;;0.00;0.00;;;16.60;57.00;;;;;;5063458;28;20071;-51
2021/12/01 06:17:58;;;;;;;2.40;0.00;;;16.60;57.10;;;;;;5063955;28;20066;-49
2021/12/01 06:20:27;;;;;;;0.00;0.00;;;16.60;57.70;;;;;;5064062;28;20040;-47
2021/12/01 06:22:54;;;;;;;1.15;0.00;;;16.60;57.20;;;;;;5064448;28;20050;-49
2021/12/01 06:25:22;;;;;;;0.00;0.00;;;16.70;57.20;;;;;;5065555;28;20052;-49
2021/12/01 06:27:49;;;;;;;1.45;0.00;;;16.60;57.10;;;;;;5063982;28;20036;-51
2021/12/01 06:30:16;;;;;;;0.00;0.00;;;16.60;57.10;;;;;;5063447;28;20442;-49
2021/12/01 06:32:43;;;;;;;0.20;0.00;;;16.60;57.10;;;;;;5064080;28;20102;-52
2021/12/01 06:35:10;;;;;;;0.00;0.00;;;16.60;57.10;;;;;;5064250;28;20048;-49
2021/12/01 06:37:39;;;;;;;1.65;0.00;;;16.60;57.20;;;;;;5064654;28;20087;-49
2021/12/01 06:40:08;;;;;;;0.00;0.00;;;16.70;57.20;;;;;;5065275;28;20471;-50
2021/12/01 06:42:35;;;;;;;0.00;0.00;;;16.70;57.20;;;;;;5065791;28;20043;-52
2021/12/01 06:45:04;;;;;;;0.00;0.00;;;16.60;57.20;;;;;;5066762;28;20051;-50
2021/12/01 06:47:31;;;;;;;0.00;0.00;;;16.70;57.20;;;;;;5067019;28;20102;-49
2021/12/01 06:49:59;;;;;;;0.22;0.00;;;16.70;57.80;;;;;;5067694;28;20049;-53
2021/12/01 06:52:28;;;;;;;0.00;0.00;;;16.60;57.20;;;;;;5068816;28;20070;-53
2021/12/01 06:54:57;;;;;;;0.10;0.00;;;16.70;57.30;;;;;;5067312;28;20036;-52
2021/12/01 06:57:25;;;;;;;0.00;0.00;;;16.70;57.20;;;;;;5066472;28;20048;-52
2021/12/01 06:59:52;;;;;;;0.13;0.00;;;16.70;57.40;;;;;;5063483;28;20124;-54
2021/12/01 07:02:19;;;;;;;0.00;0.00;;;16.70;57.80;;;;;;5065649;28;20032;-52
2021/12/01 07:04:47;;;;;;;0.08;0.00;;;16.70;57.20;;;;;;5067179;28;20131;-50
2021/12/01 07:07:14;;;;;;;0.00;0.00;;;16.70;57.30;;;;;;5068498;28;20051;-54
2021/12/01 07:09:44;;;;;;;0.55;0.00;;;16.70;57.30;;;;;;5067266;28;20048;-55
2021/12/01 07:12:13;;;;;;;0.00;0.00;;;16.70;57.90;;;;;;5066764;28;20067;-51
2021/12/01 07:14:40;;;;;;;0.43;0.00;;;16.70;57.30;;;;;;5066089;28;20048;-52
2021/12/01 07:17:08;;;;;;;0.00;0.00;;;16.70;57.30;;;;;;5066978;28;20138;-51
2021/12/01 07:19:35;;;;;;;0.00;0.00;;;16.70;57.30;;;;;;5067858;28;20075;-54
2021/12/01 07:22:02;;;;;;;0.00;0.00;;;16.70;56.90;;;;;;5067399;28;20572;-52
2021/12/01 07:24:30;;;;;;;0.10;0.03;;;16.70;57.40;;;;;;5066542;28;20036;-50
2021/12/01 07:26:58;;;;;;;0.00;0.00;;;16.70;57.50;;;;;;5062436;28;20055;-50
2021/12/01 07:29:26;;;;;;;0.00;0.00;;;16.70;57.60;;;;;;5065660;28;20040;-48
2021/12/01 07:31:54;;;;;;;0.68;0.00;;;16.70;57.80;;;;;;5065047;28;20040;-48
2021/12/01 07:34:21;;;;;;;0.00;0.00;;;16.70;57.80;;;;;;5066758;28;20040;-49
2021/12/01 07:36:49;;;;;;;0.08;0.00;;;16.70;57.80;;;;;;5065448;28;20040;-53
2021/12/01 07:39:16;;;;;;;0.00;0.00;;;16.80;57.80;;;;;;5060821;28;20742;-55
2021/12/01 07:41:44;;;;;;;0.00;0.00;;;16.80;57.80;;;;;;5065498;28;20033;-48
2021/12/01 07:44:11;;;;;;;2.95;0.00;;;16.80;57.90;;;;;;5063001;28;20040;-51
2021/12/01 07:46:40;;;;;;;1.20;0.00;;;16.80;58.00;;;;;;5066163;28;20488;-49
2021/12/01 07:49:07;;;;;;;0.00;0.00;;;16.80;58.10;;;;;;5067842;28;20128;-57
2021/12/01 07:51:35;;;;;;;1.90;0.00;;;16.80;58.20;;;;;;5066219;28;20400;-54
2021/12/01 07:54:02;;;;;;;0.08;0.00;;;16.90;58.30;;;;;;5065425;28;20040;-55
2021/12/01 07:56:29;;;;;;;6.15;0.00;;;16.90;58.40;;;;;;5065606;28;20101;-47
2021/12/01 07:58:56;;;;;;;6.55;0.00;;;16.90;58.40;;;;;;5066102;28;20408;-46
2021/12/01 08:01:23;;;;;;;0.65;0.00;;;16.90;58.40;;;;;;5063194;28;20043;-52
2021/12/01 08:03:52;;;;;;;2.70;0.00;;;16.90;58.40;;;;;;5065221;28;20090;-49
2021/12/01 08:06:20;;;;;;;0.73;0.00;;;17.00;58.50;;;;;;5061230;28;20136;-48
2021/12/01 08:08:47;;;;;;;0.10;0.00;;;17.00;59.00;;;;;;5064395;28;20037;-49
2021/12/01 08:11:14;;;;;;;0.10;0.10;;;17.00;58.50;;;;;;5065384;28;20028;-52
2021/12/01 08:13:42;;;;;;;0.00;0.00;;;17.00;58.50;;;;;;5065341;28;20137;-48
2021/12/01 08:16:09;;;;;;;0.00;0.00;;;17.00;58.50;;;;;;5066949;28;20051;-52
2021/12/01 08:18:36;;;;;;;0.00;0.00;;;17.10;58.60;;;;;;5065440;28;20390;-48
2021/12/01 08:21:05;;;;;;;3.00;0.10;;;17.00;58.50;;;;;;5065555;28;20123;-49
2021/12/01 08:23:32;;;;;;;0.25;0.00;;;17.10;58.60;;;;;;5064370;28;20037;-52
2021/12/01 08:25:59;;;;;;;3.03;0.00;;;17.10;58.60;;;;;;5064946;28;20664;-49
2021/12/01 08:28:26;;;;;;;5.80;0.10;;;17.10;58.60;;;;;;5066516;28;20132;-50
2021/12/01 08:30:54;;;;;;;5.32;0.73;;;17.10;59.20;;;;;;5061649;28;20044;-47
2021/12/01 08:33:21;;;;;;;2.03;0.43;;;17.10;61.10;;;;;;5059170;28;20045;-50
2021/12/01 08:35:48;;;;;;;3.25;0.52;;;17.20;62.40;;;;;;5062291;28;20048;-48
2021/12/01 08:38:16;;;;;;;3.60;0.52;;;17.20;63.20;;;;;;5064436;28;20163;-48
2021/12/01 08:40:44;;;;;;;4.18;0.25;;;17.20;63.80;;;;;;5058643;28;20043;-47
2021/12/01 08:43:11;;;;;;;5.63;0.10;;;17.30;64.10;;;;;;5061210;28;20149;-49
2021/12/01 08:45:39;;;;;;;1.65;0.25;;;17.30;64.30;;;;;;5061810;28;20045;-50
2021/12/01 08:48:06;;;;;;;4.53;1.00;;;17.30;64.50;;;;;;5064525;28;20153;-49
2021/12/01 08:50:35;;;;;;;2.17;0.05;;;17.30;64.50;;;;;;5064342;28;20048;-46
2021/12/01 08:53:02;;;;;;;0.30;0.00;;;17.40;64.60;;;;;;5064245;28;20128;-50
2021/12/01 08:55:31;;;;;;;0.82;0.10;;;17.40;64.60;;;;;;5060105;28;20063;-51
2021/12/01 08:57:58;;;;;;;0.82;0.10;;;17.40;64.70;;;;;;5065091;28;20123;-50
2021/12/01 09:00:27;;;;;;;3.30;0.00;;;17.40;65.10;;;;;;5060224;28;20115;-48
2021/12/01 09:02:54;;;;;;;0.95;0.10;;;17.50;64.60;;;;;;5058050;28;20044;-46
2021/12/01 09:05:21;;;;;;;1.83;0.00;;;17.50;64.50;;;;;;5060891;28;20473;-51
2021/12/01 09:07:48;;;;;;;2.47;0.03;;;17.50;65.00;;;;;;5061726;28;20054;-47
2021/12/01 09:10:15;;;;;;;0.47;0.10;;;17.50;64.30;;;;;;5063262;28;20051;-47
2021/12/01 09:12:44;;;;;;;2.55;0.00;;;17.50;64.20;;;;;;5063111;28;20055;-46
2021/12/01 09:15:13;;;;;;;1.73;0.20;;;17.60;64.10;;;;;;5064581;28;20032;-48
2021/12/01 09:17:40;;;;;;;0.10;0.00;;;17.60;64.00;;;;;;5058316;28;20048;-46
2021/12/01 09:20:09;;;;;;;1.45;0.05;;;17.60;63.90;;;;;;5063133;28;20040;-50
2021/12/01 09:22:36;;;;;;;0.20;0.10;;;17.70;63.80;;;;;;5064442;28;20068;-47
2021/12/01 09:25:03;;;;;;;0.50;0.00;;;17.70;63.60;;;;;;5062140;28;20175;-48
2021/12/01 09:27:31;;;;;;;1.75;0.30;;;17.70;63.50;;;;;;5062364;28;20048;-47
2021/12/01 09:29:59;;;;;;;6.82;0.00;;;17.70;63.40;;;;;;5064192;28;20316;-48
2021/12/01 09:32:27;;;;;;;3.72;0.10;;;17.80;63.30;;;;;;5061952;28;20043;-50
2021/12/01 09:34:54;;;;;;;1.55;0.00;;;17.80;63.20;;;;;;5064106;28;20114;-49
2021/12/01 09:37:21;;;;;;;1.08;0.10;;;17.80;63.10;;;;;;5065507;28;20044;-50
2021/12/01 09:39:49;;;;;;;0.05;0.00;;;17.80;63.00;;;;;;5063563;28;20056;-52
2021/12/01 09:42:16;;;;;;;0.17;0.00;;;17.80;62.80;;;;;;5062452;28;20037;-46
2021/12/01 09:44:44;;;;;;;2.28;0.10;;;17.80;62.70;;;;;;5061089;28;20043;-48
2021/12/01 09:47:15;;;;;;;1.65;0.00;;;17.80;62.60;;;;;;5063992;28;20079;-47
2021/12/01 09:49:42;;;;;;;2.72;0.00;;;17.80;62.50;;;;;;5056449;28;20040;-49
2021/12/01 09:52:10;;;;;;;0.20;0.00;;;17.80;62.40;;;;;;5059839;28;20037;-45
2021/12/01 09:54:38;;;;;;;1.85;0.00;;;17.80;62.30;;;;;;5064233;28;20079;-48
2021/12/01 09:57:06;;;;;;;0.98;0.00;;;17.80;62.20;;;;;;5064104;28;20036;-50
2021/12/01 09:59:33;;;;;;;0.15;0.10;;;17.80;62.10;;;;;;5061481;28;20050;-46
2021/12/01 10:02:01;;;;;;;0.75;0.13;;;17.80;62.00;;;;;;5061652;28;20780;-50
2021/12/01 10:04:30;;;;;;;1.45;0.55;;;17.90;61.90;;;;;;5054581;28;20049;-46
2021/12/01 10:07:13;;;;;;;0.95;0.00;;;17.90;61.80;;;;;;5063096;28;20484;-45
2021/12/01 10:09:43;;;;;;;0.47;0.00;;;17.90;61.70;;;;;;5062028;28;20044;-47
2021/12/01 10:12:12;;;;;;;1.65;0.10;;;17.90;61.70;;;;;;5057856;28;20056;-47
2021/12/01 10:14:45;;;;;;;0.20;0.20;;;17.90;61.60;;;;;;5061291;28;20427;-45
2021/12/01 10:17:12;;;;;;;1.75;0.00;;;17.90;61.50;;;;;;5066702;28;20071;-48
2021/12/01 10:19:41;;;;;;;0.30;0.17;;;17.90;61.40;;;;;;5067704;28;20049;-51
2021/12/01 10:22:10;;;;;;;1.40;0.10;;;17.90;61.30;;;;;;5068196;28;20048;-46
2021/12/01 10:24:39;;;;;;;0.10;0.00;;;17.90;61.20;;;;;;5067651;28;20115;-50
2021/12/01 10:27:12;;;;;;;0.68;0.00;;;18.00;61.20;;;;;;5067157;28;20048;-49
2021/12/01 10:29:44;;;;;;;1.23;0.10;;;18.00;61.00;;;;;;5065369;28;20040;-50
2021/12/01 10:32:16;;;;;;;1.27;0.08;;;18.00;60.80;;;;;;5066216;28;20515;-50
2021/12/01 10:34:47;;;;;;;2.85;0.57;;;18.00;60.70;;;;;;5067464;28;20124;-45
2021/12/01 10:37:22;;;;;;;0.98;0.00;;;18.10;60.60;;;;;;5063706;28;20087;-51
2021/12/01 10:40:05;;;;;;;0.52;0.20;;;18.00;60.50;;;;;;5067370;28;20036;-48
2021/12/01 10:42:32;;;;;;;0.63;0.00;;;18.10;60.50;;;;;;5094535;28;20203;-47
2021/12/01 10:45:02;;;;;;;1.95;0.10;;;18.00;60.50;;;;;;5064806;28;20040;-52
2021/12/01 10:47:38;;;;;;;3.15;0.10;;;18.00;61.00;;;;;;5066824;28;20071;-48
2021/12/01 10:50:13;;;;;;;0.85;0.20;;;18.00;60.40;;;;;;5065984;28;20044;-48
2021/12/01 10:52:43;;;;;;;1.17;0.10;;;18.00;60.40;;;;;;5066747;28;20485;-47
2021/12/01 10:55:12;;;;;;;1.63;0.03;;;18.00;60.40;;;;;;5068091;28;20037;-48
2021/12/01 10:57:42;;;;;;;1.65;0.10;;;18.00;60.30;;;;;;5066731;28;20041;-48
2021/12/01 11:00:15;;;;;;;3.28;0.10;;;18.00;60.40;;;;;;5063956;28;20045;-48
2021/12/01 11:02:42;;;;;;;2.22;0.13;;;18.10;60.50;;;;;;5065542;28;20044;-47
2021/12/01 11:05:11;;;;;;;0.98;0.38;;;18.00;60.40;;;;;;5063883;28;20049;-45
2021/12/01 11:07:38;;;;;;;1.50;0.10;;;18.10;60.30;;;;;;5066690;28;20047;-46
2021/12/01 11:10:13;;;;;;;0.52;0.20;;;18.10;60.60;;;;;;5067816;28;20552;-51
2021/12/01 11:12:41;;;;;;;1.52;0.10;;;18.20;59.80;;;;;;5065928;28;20041;-46
2021/12/01 11:15:20;;;;;;;1.13;0.05;;;18.20;59.60;;;;;;5065845;28;20545;-51
2021/12/01 11:17:48;;;;;;;1.77;0.10;;;18.30;59.50;;;;;;5064216;28;20056;-48
2021/12/01 11:20:48;;;;;;;0.57;0.10;;;18.30;59.40;;;;;;5062922;28;20041;-51
2021/12/01 11:23:20;;;;;;;2.15;0.15;;;18.30;59.30;;;;;;5065328;28;20389;-48
2021/12/01 11:25:51;;;;;;;0.45;0.10;;;18.30;59.20;;;;;;5064921;28;20037;-49
2021/12/01 11:28:20;;;;;;;4.35;0.17;;;18.30;59.40;;;;;;5064584;28;20094;-47
2021/12/01 11:30:50;;;;;;;5.10;0.35;;;18.30;59.80;;;;;;5065823;28;20047;-47
2021/12/01 11:33:20;;;;;;;5.57;0.40;;;18.40;60.10;;;;;;5064685;28;20412;-47
2021/12/01 11:35:49;;;;;;;1.88;0.10;;;18.50;60.30;;;;;;5065934;28;20413;-45
2021/12/01 11:38:19;;;;;;;5.53;0.20;;;18.60;60.10;;;;;;5062645;28;20373;-44
2021/12/01 11:40:47;;;;;;;1.90;0.20;;;18.80;59.90;;;;;;5064552;28;20041;-45
2021/12/01 11:43:18;;;;;;;1.35;0.10;;;18.80;59.70;;;;;;5065917;28;20094;-46
2021/12/01 11:45:46;;;;;;;3.88;0.10;;;19.00;59.50;;;;;;5065650;28;20523;-45
2021/12/01 11:48:16;;;;;;;1.98;0.47;;;19.00;59.10;;;;;;5065538;28;20369;-48
2021/12/01 11:50:48;;;;;;;1.55;0.10;;;19.10;58.80;;;;;;5065658;28;20033;-47
2021/12/01 11:53:21;;;;;;;1.25;0.20;;;19.20;58.80;;;;;;5066097;28;20052;-51
2021/12/01 11:55:57;;;;;;;1.83;0.70;;;19.30;58.30;;;;;;5064038;28;20036;-48
2021/12/01 11:59:01;;;;;;;1.00;0.63;;;19.40;58.00;;;;;;5064589;28;20037;-50
2021/12/01 12:01:43;;;;;;;1.88;0.20;;;19.40;57.80;;;;;;5065134;28;20045;-50
2021/12/01 12:04:38;;;;;;;0.50;0.20;;;19.50;57.30;;;;;;5066217;28;20535;-46
2021/12/01 12:07:07;;;;;;;0.17;0.10;;;19.50;57.70;;;;;;5065112;28;20052;-46
2021/12/01 12:09:37;;;;;;;4.57;0.10;;;19.60;57.80;;;;;;5065804;28;20068;-47
2021/12/01 12:12:13;;;;;;;2.15;0.30;;;19.70;57.80;;;;;;5062235;28;20033;-49
2021/12/01 12:14:48;;;;;;;;;;;19.80;57.60;;;;;;5061969;28;20068;-47
2021/12/01 12:17:18;;;;;;;2.05;0.28;;;19.80;57.50;;;;;;5065548;28;20007;-45
2021/12/01 12:19:51;;;;;;;1.55;0.10;;;19.90;57.30;;;;;;5065660;28;20048;-48
2021/12/01 12:22:22;;;;;;;0.38;0.15;;;20.00;57.20;;;;;;5065578;28;20658;-45
2021/12/01 12:24:54;;;;;;;5.22;1.33;;;20.10;56.60;;;;;;5065244;28;20055;-48
2021/12/01 12:27:37;;;;;;;2.22;0.10;;;20.10;56.10;;;;;;5065086;28;20044;-47
2021/12/01 12:30:10;;;;;;;1.35;0.20;;;20.20;55.40;;;;;;5061851;28;20519;-51
2021/12/01 12:32:38;;;;;;;0.10;0.10;;;20.20;55.20;;;;;;5065066;28;20032;-50
2021/12/01 12:35:09;;;;;;;1.17;0.10;;;20.20;55.50;;;;;;5064652;28;20048;-45
2021/12/01 12:37:37;;;;;;;0.45;0.40;;;20.20;55.20;;;;;;5065827;28;20059;-48
2021/12/01 12:40:31;;;;;;;0.30;0.10;;;20.30;55.50;;;;;;5065783;28;20041;-47
2021/12/01 12:43:07;;;;;;;1.05;0.10;;;20.40;55.50;;;;;;5065566;28;20064;-50
2021/12/01 12:45:34;;;;;;;0.35;0.05;;;20.50;56.10;;;;;;5061893;28;20044;-46
2021/12/01 12:48:01;;;;;;;0.30;0.10;;;20.60;55.40;;;;;;5064429;28;20044;-46
2021/12/01 12:50:28;;;;;;;0.85;0.10;;;20.70;55.10;;;;;;5065058;28;20040;-50
2021/12/01 12:53:06;;;;;;;0.60;0.00;;;20.70;54.90;;;;;;5064732;28;20047;-47
2021/12/01 12:55:43;;;;;;;3.42;0.10;;;20.80;54.70;;;;;;5065395;28;20145;-48
2021/12/01 12:58:14;;;;;;;0.22;0.10;;;20.80;53.20;;;;;;5066022;28;20041;-47
2021/12/01 13:00:48;;;;;;;0.20;0.00;;;20.90;52.80;;;;;;5064267;28;20040;-49